sensor_id;sensor_type;location;lat;lon;timestamp;P1;durP1;ratioP1;P2;durP2;ratioP2
23300;SDS011;11819;51.394;12.340;2023-02-28T00:01:28;6.67;;;3.80;;
23300;SDS011;11819;51.394;12.340;2023-02-28T00:03:54;7.37;;;3.90;;
23300;SDS011;11819;51.394;12.340;2023-02-28T00:06:19;6.70;;;4.37;;
23300;SDS011;11819;51.394;12.340;2023-02-28T00:08:46;6.57;;;3.83;;
23300;SDS011;11819;51.394;12.340;2023-02-28T00:11:13;7.97;;;4.37;;
23300;SDS011;11819;51.394;12.340;2023-02-28T00:13:41;6.23;;;3.77;;
23300;SDS011;11819;51.394;12.340;2023-02-28T00:16:12;6.30;;;3.90;;
23300;SDS011;11819;51.394;12.340;2023-02-28T00:18:44;8.23;;;4.20;;
23300;SDS011;11819;51.394;12.340;2023-02-28T00:21:09;6.20;;;3.70;;
23300;SDS011;11819;51.394;12.340;2023-02-28T00:23:36;6.97;;;3.63;;
23300;SDS011;11819;51.394;12.340;2023-02-28T00:26:02;7.27;;;4.17;;
23300;SDS011;11819;51.394;12.340;2023-02-28T00:28:31;8.30;;;4.63;;
23300;SDS011;11819;51.394;12.340;2023-02-28T00:30:58;6.93;;;3.73;;
23300;SDS011;11819;51.394;12.340;2023-02-28T00:33:25;7.63;;;3.93;;
23300;SDS011;11819;51.394;12.340;2023-02-28T00:36:00;8.17;;;3.87;;
23300;SDS011;11819;51.394;12.340;2023-02-28T00:38:36;8.77;;;4.00;;
23300;SDS011;11819;51.394;12.340;2023-02-28T00:41:04;9.47;;;4.63;;
23300;SDS011;11819;51.394;12.340;2023-02-28T00:43:31;7.10;;;4.23;;
23300;SDS011;11819;51.394;12.340;2023-02-28T00:45:58;8.63;;;4.13;;
23300;SDS011;11819;51.394;12.340;2023-02-28T00:48:23;7.60;;;3.70;;
23300;SDS011;11819;51.394;12.340;2023-02-28T00:50:49;7.97;;;4.30;;
23300;SDS011;11819;51.394;12.340;2023-02-28T00:53:15;7.80;;;4.20;;
23300;SDS011;11819;51.394;12.340;2023-02-28T00:55:40;6.33;;;3.50;;
23300;SDS011;11819;51.394;12.340;2023-02-28T00:58:06;9.23;;;4.20;;
23300;SDS011;11819;51.394;12.340;2023-02-28T01:00:33;7.57;;;3.77;;
23300;SDS011;11819;51.394;12.340;2023-02-28T01:02:59;6.83;;;4.07;;
23300;SDS011;11819;51.394;12.340;2023-02-28T01:05:25;6.67;;;3.77;;
23300;SDS011;11819;51.394;12.340;2023-02-28T01:07:52;7.10;;;4.07;;
23300;SDS011;11819;51.394;12.340;2023-02-28T01:10:18;8.40;;;4.27;;
23300;SDS011;11819;51.394;12.340;2023-02-28T01:12:44;7.03;;;3.90;;
23300;SDS011;11819;51.394;12.340;2023-02-28T01:15:10;7.63;;;4.53;;
23300;SDS011;11819;51.394;12.340;2023-02-28T01:17:36;6.90;;;4.33;;
23300;SDS011;11819;51.394;12.340;2023-02-28T01:20:02;6.70;;;4.27;;
23300;SDS011;11819;51.394;12.340;2023-02-28T01:22:29;6.43;;;3.87;;
23300;SDS011;11819;51.394;12.340;2023-02-28T01:24:55;8.40;;;4.50;;
23300;SDS011;11819;51.394;12.340;2023-02-28T01:27:20;6.83;;;3.90;;
23300;SDS011;11819;51.394;12.340;2023-02-28T01:29:47;9.57;;;4.40;;
23300;SDS011;11819;51.394;12.340;2023-02-28T01:32:14;8.20;;;4.00;;
23300;SDS011;11819;51.394;12.340;2023-02-28T01:34:41;7.30;;;4.13;;
23300;SDS011;11819;51.394;12.340;2023-02-28T01:37:07;8.40;;;4.33;;
23300;SDS011;11819;51.394;12.340;2023-02-28T01:39:36;7.30;;;4.27;;
23300;SDS011;11819;51.394;12.340;2023-02-28T01:42:02;7.97;;;4.67;;
23300;SDS011;11819;51.394;12.340;2023-02-28T01:47:29;9.33;;;4.47;;
23300;SDS011;11819;51.394;12.340;2023-02-28T01:49:58;8.17;;;4.43;;
23300;SDS011;11819;51.394;12.340;2023-02-28T01:52:25;6.03;;;3.83;;
23300;SDS011;11819;51.394;12.340;2023-02-28T01:54:53;7.33;;;4.10;;
23300;SDS011;11819;51.394;12.340;2023-02-28T01:57:25;7.30;;;4.33;;
23300;SDS011;11819;51.394;12.340;2023-02-28T02:00:07;8.00;;;4.50;;
23300;SDS011;11819;51.394;12.340;2023-02-28T02:02:39;6.60;;;4.10;;
23300;SDS011;11819;51.394;12.340;2023-02-28T02:05:12;7.67;;;4.00;;
23300;SDS011;11819;51.394;12.340;2023-02-28T02:07:41;8.03;;;4.40;;
23300;SDS011;11819;51.394;12.340;2023-02-28T02:10:27;9.13;;;4.60;;
23300;SDS011;11819;51.394;12.340;2023-02-28T02:13:01;8.03;;;4.33;;
23300;SDS011;11819;51.394;12.340;2023-02-28T02:18:31;7.50;;;4.03;;
23300;SDS011;11819;51.394;12.340;2023-02-28T02:21:10;7.37;;;4.23;;
23300;SDS011;11819;51.394;12.340;2023-02-28T02:24:03;7.37;;;4.40;;
23300;SDS011;11819;51.394;12.340;2023-02-28T02:35:24;8.87;;;4.60;;
23300;SDS011;11819;51.394;12.340;2023-02-28T02:38:06;8.03;;;4.43;;
23300;SDS011;11819;51.394;12.340;2023-02-28T02:40:57;8.80;;;4.10;;
23300;SDS011;11819;51.394;12.340;2023-02-28T02:43:46;8.40;;;4.60;;
23300;SDS011;11819;51.394;12.340;2023-02-28T02:46:24;8.20;;;4.40;;
23300;SDS011;11819;51.394;12.340;2023-02-28T02:48:57;9.53;;;4.63;;
23300;SDS011;11819;51.394;12.340;2023-02-28T02:51:28;7.70;;;4.17;;
23300;SDS011;11819;51.394;12.340;2023-02-28T02:54:19;7.40;;;4.03;;
23300;SDS011;11819;51.394;12.340;2023-02-28T02:56:48;7.57;;;4.60;;
23300;SDS011;11819;51.394;12.340;2023-02-28T02:59:18;10.47;;;4.83;;
23300;SDS011;11819;51.394;12.340;2023-02-28T03:01:55;8.67;;;4.97;;
23300;SDS011;11819;51.394;12.340;2023-02-28T03:04:25;9.10;;;4.90;;
23300;SDS011;11819;51.394;12.340;2023-02-28T03:06:57;8.07;;;4.30;;
23300;SDS011;11819;51.394;12.340;2023-02-28T03:09:24;11.00;;;5.47;;
23300;SDS011;11819;51.394;12.340;2023-02-28T03:11:51;7.27;;;4.40;;
23300;SDS011;11819;51.394;12.340;2023-02-28T03:20:01;8.10;;;5.03;;
23300;SDS011;11819;51.394;12.340;2023-02-28T03:22:49;10.07;;;4.73;;
23300;SDS011;11819;51.394;12.340;2023-02-28T03:25:32;7.17;;;4.37;;
23300;SDS011;11819;51.394;12.340;2023-02-28T03:28:08;9.87;;;5.40;;
23300;SDS011;11819;51.394;12.340;2023-02-28T03:33:18;10.43;;;5.00;;
23300;SDS011;11819;51.394;12.340;2023-02-28T03:35:55;7.47;;;4.57;;
23300;SDS011;11819;51.394;12.340;2023-02-28T03:38:37;8.93;;;5.10;;
23300;SDS011;11819;51.394;12.340;2023-02-28T03:41:16;10.73;;;5.40;;
23300;SDS011;11819;51.394;12.340;2023-02-28T03:43:54;9.77;;;4.80;;
23300;SDS011;11819;51.394;12.340;2023-02-28T03:46:24;9.90;;;5.23;;
23300;SDS011;11819;51.394;12.340;2023-02-28T03:48:58;7.87;;;5.07;;
23300;SDS011;11819;51.394;12.340;2023-02-28T03:51:30;8.67;;;5.40;;
23300;SDS011;11819;51.394;12.340;2023-02-28T03:53:59;9.70;;;5.27;;
23300;SDS011;11819;51.394;12.340;2023-02-28T03:56:55;9.13;;;5.53;;
23300;SDS011;11819;51.394;12.340;2023-02-28T03:59:37;7.80;;;5.07;;
23300;SDS011;11819;51.394;12.340;2023-02-28T04:02:10;9.63;;;5.50;;
23300;SDS011;11819;51.394;12.340;2023-02-28T04:04:37;8.60;;;5.37;;
23300;SDS011;11819;51.394;12.340;2023-02-28T04:07:04;7.73;;;4.47;;
23300;SDS011;11819;51.394;12.340;2023-02-28T04:09:31;9.23;;;5.57;;
23300;SDS011;11819;51.394;12.340;2023-02-28T04:11:57;8.40;;;5.30;;
23300;SDS011;11819;51.394;12.340;2023-02-28T04:14:23;9.93;;;5.73;;
23300;SDS011;11819;51.394;12.340;2023-02-28T04:16:49;11.40;;;5.67;;
23300;SDS011;11819;51.394;12.340;2023-02-28T04:19:16;11.47;;;5.90;;
23300;SDS011;11819;51.394;12.340;2023-02-28T04:21:48;9.10;;;5.77;;
23300;SDS011;11819;51.394;12.340;2023-02-28T04:24:17;10.10;;;5.73;;
23300;SDS011;11819;51.394;12.340;2023-02-28T04:26:48;10.80;;;6.40;;
23300;SDS011;11819;51.394;12.340;2023-02-28T04:29:25;10.93;;;6.10;;
23300;SDS011;11819;51.394;12.340;2023-02-28T04:31:52;10.30;;;5.97;;
23300;SDS011;11819;51.394;12.340;2023-02-28T04:34:19;10.20;;;6.30;;
23300;SDS011;11819;51.394;12.340;2023-02-28T04:36:46;8.97;;;5.70;;
23300;SDS011;11819;51.394;12.340;2023-02-28T04:39:14;12.10;;;6.43;;
23300;SDS011;11819;51.394;12.340;2023-02-28T04:41:40;12.07;;;6.40;;
23300;SDS011;11819;51.394;12.340;2023-02-28T04:44:06;10.00;;;6.20;;
23300;SDS011;11819;51.394;12.340;2023-02-28T04:46:31;11.00;;;6.53;;
23300;SDS011;11819;51.394;12.340;2023-02-28T04:48:57;13.17;;;6.40;;
23300;SDS011;11819;51.394;12.340;2023-02-28T04:51:23;11.27;;;6.53;;
23300;SDS011;11819;51.394;12.340;2023-02-28T04:53:49;10.00;;;5.93;;
23300;SDS011;11819;51.394;12.340;2023-02-28T04:56:17;10.17;;;5.87;;
23300;SDS011;11819;51.394;12.340;2023-02-28T04:58:43;10.73;;;6.70;;
23300;SDS011;11819;51.394;12.340;2023-02-28T05:01:23;12.60;;;6.57;;
23300;SDS011;11819;51.394;12.340;2023-02-28T05:03:51;10.33;;;6.43;;
23300;SDS011;11819;51.394;12.340;2023-02-28T05:06:18;10.60;;;6.47;;
23300;SDS011;11819;51.394;12.340;2023-02-28T05:08:46;11.03;;;6.43;;
23300;SDS011;11819;51.394;12.340;2023-02-28T05:11:17;11.23;;;6.73;;
23300;SDS011;11819;51.394;12.340;2023-02-28T05:13:45;10.73;;;6.43;;
23300;SDS011;11819;51.394;12.340;2023-02-28T05:16:11;10.93;;;6.57;;
23300;SDS011;11819;51.394;12.340;2023-02-28T05:18:38;9.70;;;6.77;;
23300;SDS011;11819;51.394;12.340;2023-02-28T05:21:04;11.93;;;6.80;;
23300;SDS011;11819;51.394;12.340;2023-02-28T05:23:37;11.10;;;6.20;;
23300;SDS011;11819;51.394;12.340;2023-02-28T05:26:02;13.17;;;6.80;;
23300;SDS011;11819;51.394;12.340;2023-02-28T05:28:28;11.40;;;7.30;;
23300;SDS011;11819;51.394;12.340;2023-02-28T05:30:53;11.43;;;6.70;;
23300;SDS011;11819;51.394;12.340;2023-02-28T05:33:20;11.67;;;6.63;;
23300;SDS011;11819;51.394;12.340;2023-02-28T05:35:46;9.67;;;6.23;;
23300;SDS011;11819;51.394;12.340;2023-02-28T05:38:11;11.50;;;6.23;;
23300;SDS011;11819;51.394;12.340;2023-02-28T05:40:38;12.13;;;5.87;;
23300;SDS011;11819;51.394;12.340;2023-02-28T05:43:05;11.27;;;6.77;;
23300;SDS011;11819;51.394;12.340;2023-02-28T05:45:35;10.63;;;6.37;;
23300;SDS011;11819;51.394;12.340;2023-02-28T05:48:01;12.73;;;6.80;;
23300;SDS011;11819;51.394;12.340;2023-02-28T05:50:26;11.90;;;6.37;;
23300;SDS011;11819;51.394;12.340;2023-02-28T05:52:52;10.67;;;6.67;;
23300;SDS011;11819;51.394;12.340;2023-02-28T05:55:17;13.43;;;6.20;;
23300;SDS011;11819;51.394;12.340;2023-02-28T05:57:43;12.23;;;6.60;;
23300;SDS011;11819;51.394;12.340;2023-02-28T06:00:09;10.53;;;6.17;;
23300;SDS011;11819;51.394;12.340;2023-02-28T06:02:38;11.10;;;6.37;;
23300;SDS011;11819;51.394;12.340;2023-02-28T06:05:05;9.90;;;6.07;;
23300;SDS011;11819;51.394;12.340;2023-02-28T06:07:38;12.20;;;6.60;;
23300;SDS011;11819;51.394;12.340;2023-02-28T06:10:04;12.90;;;6.80;;
23300;SDS011;11819;51.394;12.340;2023-02-28T06:12:31;12.13;;;6.93;;
23300;SDS011;11819;51.394;12.340;2023-02-28T06:14:58;14.17;;;7.30;;
23300;SDS011;11819;51.394;12.340;2023-02-28T06:17:24;16.03;;;7.07;;
23300;SDS011;11819;51.394;12.340;2023-02-28T06:19:49;13.40;;;7.60;;
23300;SDS011;11819;51.394;12.340;2023-02-28T06:22:15;14.27;;;6.97;;
23300;SDS011;11819;51.394;12.340;2023-02-28T06:24:41;11.37;;;6.80;;
23300;SDS011;11819;51.394;12.340;2023-02-28T06:27:08;12.93;;;7.37;;
23300;SDS011;11819;51.394;12.340;2023-02-28T06:29:34;11.80;;;7.10;;
23300;SDS011;11819;51.394;12.340;2023-02-28T06:32:00;13.83;;;7.17;;
23300;SDS011;11819;51.394;12.340;2023-02-28T06:34:26;17.67;;;7.93;;
23300;SDS011;11819;51.394;12.340;2023-02-28T06:36:52;15.13;;;7.20;;
23300;SDS011;11819;51.394;12.340;2023-02-28T06:39:18;12.77;;;7.07;;
23300;SDS011;11819;51.394;12.340;2023-02-28T06:41:44;11.63;;;7.23;;
23300;SDS011;11819;51.394;12.340;2023-02-28T06:44:14;12.97;;;7.57;;
23300;SDS011;11819;51.394;12.340;2023-02-28T06:46:41;13.83;;;7.27;;
23300;SDS011;11819;51.394;12.340;2023-02-28T06:49:08;15.30;;;7.93;;
23300;SDS011;11819;51.394;12.340;2023-02-28T06:51:34;12.17;;;7.57;;
23300;SDS011;11819;51.394;12.340;2023-02-28T06:54:02;14.27;;;7.73;;
23300;SDS011;11819;51.394;12.340;2023-02-28T06:56:28;12.80;;;6.63;;
23300;SDS011;11819;51.394;12.340;2023-02-28T06:58:57;14.87;;;7.47;;
23300;SDS011;11819;51.394;12.340;2023-02-28T07:01:23;12.27;;;7.43;;
23300;SDS011;11819;51.394;12.340;2023-02-28T07:03:49;11.30;;;6.83;;
23300;SDS011;11819;51.394;12.340;2023-02-28T07:06:18;12.00;;;7.23;;
23300;SDS011;11819;51.394;12.340;2023-02-28T07:08:45;12.03;;;6.80;;
23300;SDS011;11819;51.394;12.340;2023-02-28T07:11:12;11.27;;;6.77;;
23300;SDS011;11819;51.394;12.340;2023-02-28T07:13:38;12.70;;;7.63;;
23300;SDS011;11819;51.394;12.340;2023-02-28T07:16:04;11.83;;;7.03;;
23300;SDS011;11819;51.394;12.340;2023-02-28T07:18:34;12.93;;;7.57;;
23300;SDS011;11819;51.394;12.340;2023-02-28T07:21:04;16.30;;;7.77;;
23300;SDS011;11819;51.394;12.340;2023-02-28T07:23:31;11.97;;;6.93;;
23300;SDS011;11819;51.394;12.340;2023-02-28T07:25:56;12.97;;;7.20;;
23300;SDS011;11819;51.394;12.340;2023-02-28T07:28:22;12.30;;;7.33;;
23300;SDS011;11819;51.394;12.340;2023-02-28T07:30:48;14.00;;;6.73;;
23300;SDS011;11819;51.394;12.340;2023-02-28T07:33:14;14.40;;;7.37;;
23300;SDS011;11819;51.394;12.340;2023-02-28T07:35:39;11.07;;;6.70;;
23300;SDS011;11819;51.394;12.340;2023-02-28T07:38:05;15.33;;;8.60;;
23300;SDS011;11819;51.394;12.340;2023-02-28T07:40:32;13.07;;;7.97;;
23300;SDS011;11819;51.394;12.340;2023-02-28T07:42:59;14.83;;;7.80;;
23300;SDS011;11819;51.394;12.340;2023-02-28T07:45:25;13.80;;;7.20;;
23300;SDS011;11819;51.394;12.340;2023-02-28T07:47:51;14.07;;;7.70;;
23300;SDS011;11819;51.394;12.340;2023-02-28T07:50:18;12.37;;;7.23;;
23300;SDS011;11819;51.394;12.340;2023-02-28T07:52:43;14.57;;;7.63;;
23300;SDS011;11819;51.394;12.340;2023-02-28T07:55:10;14.63;;;7.10;;
23300;SDS011;11819;51.394;12.340;2023-02-28T07:57:36;15.17;;;7.97;;
23300;SDS011;11819;51.394;12.340;2023-02-28T08:00:05;12.30;;;7.80;;
23300;SDS011;11819;51.394;12.340;2023-02-28T08:02:37;13.47;;;7.57;;
23300;SDS011;11819;51.394;12.340;2023-02-28T08:05:02;15.30;;;7.40;;
23300;SDS011;11819;51.394;12.340;2023-02-28T08:07:29;13.63;;;6.50;;
23300;SDS011;11819;51.394;12.340;2023-02-28T08:09:58;12.37;;;6.63;;
23300;SDS011;11819;51.394;12.340;2023-02-28T08:12:25;11.33;;;6.90;;
23300;SDS011;11819;51.394;12.340;2023-02-28T08:14:50;13.03;;;7.23;;
23300;SDS011;11819;51.394;12.340;2023-02-28T08:17:16;11.40;;;6.63;;
23300;SDS011;11819;51.394;12.340;2023-02-28T08:19:42;13.87;;;7.23;;
23300;SDS011;11819;51.394;12.340;2023-02-28T08:22:09;11.33;;;6.10;;
23300;SDS011;11819;51.394;12.340;2023-02-28T08:24:36;11.37;;;6.00;;
23300;SDS011;11819;51.394;12.340;2023-02-28T08:27:02;11.73;;;6.03;;
23300;SDS011;11819;51.394;12.340;2023-02-28T08:29:28;9.97;;;6.43;;
23300;SDS011;11819;51.394;12.340;2023-02-28T08:31:55;10.73;;;6.23;;
23300;SDS011;11819;51.394;12.340;2023-02-28T08:34:20;11.87;;;6.80;;
23300;SDS011;11819;51.394;12.340;2023-02-28T08:36:47;9.97;;;6.37;;
23300;SDS011;11819;51.394;12.340;2023-02-28T08:39:13;9.37;;;5.60;;
23300;SDS011;11819;51.394;12.340;2023-02-28T08:41:38;10.03;;;5.67;;
23300;SDS011;11819;51.394;12.340;2023-02-28T08:44:06;10.27;;;5.83;;
23300;SDS011;11819;51.394;12.340;2023-02-28T08:46:31;8.43;;;5.43;;
23300;SDS011;11819;51.394;12.340;2023-02-28T08:48:57;8.97;;;5.63;;
23300;SDS011;11819;51.394;12.340;2023-02-28T08:51:25;8.47;;;5.50;;
23300;SDS011;11819;51.394;12.340;2023-02-28T08:53:55;10.70;;;5.43;;
23300;SDS011;11819;51.394;12.340;2023-02-28T08:56:25;8.30;;;5.60;;
23300;SDS011;11819;51.394;12.340;2023-02-28T08:58:53;10.50;;;5.27;;
23300;SDS011;11819;51.394;12.340;2023-02-28T09:01:23;10.20;;;5.90;;
23300;SDS011;11819;51.394;12.340;2023-02-28T09:03:53;13.03;;;5.40;;
23300;SDS011;11819;51.394;12.340;2023-02-28T09:06:21;10.27;;;6.33;;
23300;SDS011;11819;51.394;12.340;2023-02-28T09:08:48;9.47;;;5.80;;
23300;SDS011;11819;51.394;12.340;2023-02-28T09:11:14;9.07;;;5.63;;
23300;SDS011;11819;51.394;12.340;2023-02-28T09:13:40;9.43;;;5.60;;
23300;SDS011;11819;51.394;12.340;2023-02-28T09:16:08;11.27;;;5.67;;
23300;SDS011;11819;51.394;12.340;2023-02-28T09:18:36;9.37;;;5.37;;
23300;SDS011;11819;51.394;12.340;2023-02-28T09:21:03;8.77;;;5.70;;
23300;SDS011;11819;51.394;12.340;2023-02-28T09:23:31;9.63;;;5.17;;
23300;SDS011;11819;51.394;12.340;2023-02-28T09:25:56;9.00;;;5.53;;
23300;SDS011;11819;51.394;12.340;2023-02-28T09:28:22;11.83;;;5.97;;
23300;SDS011;11819;51.394;12.340;2023-02-28T09:30:52;12.17;;;6.00;;
23300;SDS011;11819;51.394;12.340;2023-02-28T09:33:21;9.53;;;5.03;;
23300;SDS011;11819;51.394;12.340;2023-02-28T09:35:56;9.07;;;5.57;;
23300;SDS011;11819;51.394;12.340;2023-02-28T09:38:24;9.80;;;6.10;;
23300;SDS011;11819;51.394;12.340;2023-02-28T09:40:51;11.57;;;6.00;;
23300;SDS011;11819;51.394;12.340;2023-02-28T09:43:20;10.60;;;5.77;;
23300;SDS011;11819;51.394;12.340;2023-02-28T09:45:50;8.83;;;5.10;;
23300;SDS011;11819;51.394;12.340;2023-02-28T09:48:24;8.50;;;4.83;;
23300;SDS011;11819;51.394;12.340;2023-02-28T09:50:55;9.20;;;5.33;;
23300;SDS011;11819;51.394;12.340;2023-02-28T09:53:34;8.90;;;5.30;;
23300;SDS011;11819;51.394;12.340;2023-02-28T09:56:11;9.23;;;4.90;;
23300;SDS011;11819;51.394;12.340;2023-02-28T09:58:55;13.37;;;5.97;;
23300;SDS011;11819;51.394;12.340;2023-02-28T10:04:51;9.33;;;5.77;;
23300;SDS011;11819;51.394;12.340;2023-02-28T10:10:13;9.47;;;6.00;;
23300;SDS011;11819;51.394;12.340;2023-02-28T10:12:59;8.90;;;5.47;;
23300;SDS011;11819;51.394;12.340;2023-02-28T10:15:28;10.30;;;5.70;;
23300;SDS011;11819;51.394;12.340;2023-02-28T10:17:57;10.23;;;5.87;;
23300;SDS011;11819;51.394;12.340;2023-02-28T10:20:27;9.47;;;5.63;;
23300;SDS011;11819;51.394;12.340;2023-02-28T10:23:00;9.87;;;6.57;;
23300;SDS011;11819;51.394;12.340;2023-02-28T10:25:32;10.77;;;5.53;;
23300;SDS011;11819;51.394;12.340;2023-02-28T10:28:01;9.53;;;5.60;;
23300;SDS011;11819;51.394;12.340;2023-02-28T10:30:34;9.07;;;5.63;;
23300;SDS011;11819;51.394;12.340;2023-02-28T10:33:02;9.57;;;6.07;;
23300;SDS011;11819;51.394;12.340;2023-02-28T10:35:28;9.80;;;5.70;;
23300;SDS011;11819;51.394;12.340;2023-02-28T10:37:58;8.93;;;5.27;;
23300;SDS011;11819;51.394;12.340;2023-02-28T10:40:27;9.33;;;5.40;;
23300;SDS011;11819;51.394;12.340;2023-02-28T10:43:01;10.63;;;5.93;;
23300;SDS011;11819;51.394;12.340;2023-02-28T10:45:39;10.77;;;6.27;;
23300;SDS011;11819;51.394;12.340;2023-02-28T10:53:16;11.20;;;6.33;;
23300;SDS011;11819;51.394;12.340;2023-02-28T10:58:29;10.53;;;6.33;;
23300;SDS011;11819;51.394;12.340;2023-02-28T11:00:55;9.03;;;6.23;;
23300;SDS011;11819;51.394;12.340;2023-02-28T11:03:23;11.03;;;6.53;;
23300;SDS011;11819;51.394;12.340;2023-02-28T11:05:53;10.27;;;5.90;;
23300;SDS011;11819;51.394;12.340;2023-02-28T11:08:19;10.87;;;6.47;;
23300;SDS011;11819;51.394;12.340;2023-02-28T11:10:45;9.53;;;5.90;;
23300;SDS011;11819;51.394;12.340;2023-02-28T11:13:19;11.63;;;7.20;;
23300;SDS011;11819;51.394;12.340;2023-02-28T11:15:54;10.53;;;6.27;;
23300;SDS011;11819;51.394;12.340;2023-02-28T11:18:27;13.53;;;6.70;;
23300;SDS011;11819;51.394;12.340;2023-02-28T11:20:58;12.00;;;7.13;;
23300;SDS011;11819;51.394;12.340;2023-02-28T11:23:26;9.93;;;6.27;;
23300;SDS011;11819;51.394;12.340;2023-02-28T11:25:59;10.00;;;6.27;;
23300;SDS011;11819;51.394;12.340;2023-02-28T11:28:32;10.20;;;7.10;;
23300;SDS011;11819;51.394;12.340;2023-02-28T11:31:03;11.60;;;6.47;;
23300;SDS011;11819;51.394;12.340;2023-02-28T11:33:43;11.60;;;6.50;;
23300;SDS011;11819;51.394;12.340;2023-02-28T11:38:50;13.33;;;6.70;;
23300;SDS011;11819;51.394;12.340;2023-02-28T11:52:23;10.73;;;6.73;;
23300;SDS011;11819;51.394;12.340;2023-02-28T12:03:31;13.60;;;7.50;;
23300;SDS011;11819;51.394;12.340;2023-02-28T12:20:05;11.47;;;7.57;;
23300;SDS011;11819;51.394;12.340;2023-02-28T12:23:14;12.63;;;7.53;;
23300;SDS011;11819;51.394;12.340;2023-02-28T12:26:07;13.20;;;8.07;;
23300;SDS011;11819;51.394;12.340;2023-02-28T12:28:42;13.60;;;8.23;;
23300;SDS011;11819;51.394;12.340;2023-02-28T12:31:22;14.73;;;9.47;;
23300;SDS011;11819;51.394;12.340;2023-02-28T12:33:56;13.67;;;8.10;;
23300;SDS011;11819;51.394;12.340;2023-02-28T12:36:26;14.80;;;9.03;;
23300;SDS011;11819;51.394;12.340;2023-02-28T12:38:58;14.67;;;9.37;;
23300;SDS011;11819;51.394;12.340;2023-02-28T12:44:04;13.17;;;9.23;;
23300;SDS011;11819;51.394;12.340;2023-02-28T12:46:44;14.33;;;9.63;;
23300;SDS011;11819;51.394;12.340;2023-02-28T12:49:31;14.57;;;9.40;;
23300;SDS011;11819;51.394;12.340;2023-02-28T12:52:11;16.07;;;9.23;;
23300;SDS011;11819;51.394;12.340;2023-02-28T12:57:28;14.60;;;8.87;;
23300;SDS011;11819;51.394;12.340;2023-02-28T13:00:04;15.83;;;8.97;;
23300;SDS011;11819;51.394;12.340;2023-02-28T13:11:25;12.40;;;8.97;;
23300;SDS011;11819;51.394;12.340;2023-02-28T13:13:59;13.33;;;9.00;;
23300;SDS011;11819;51.394;12.340;2023-02-28T13:16:26;13.50;;;9.50;;
23300;SDS011;11819;51.394;12.340;2023-02-28T13:18:52;12.90;;;8.80;;
23300;SDS011;11819;51.394;12.340;2023-02-28T13:21:41;14.93;;;8.43;;
23300;SDS011;11819;51.394;12.340;2023-02-28T13:24:08;13.80;;;9.17;;
23300;SDS011;11819;51.394;12.340;2023-02-28T13:29:21;13.80;;;8.63;;
23300;SDS011;11819;51.394;12.340;2023-02-28T13:32:18;14.60;;;8.53;;
23300;SDS011;11819;51.394;12.340;2023-02-28T13:39:58;12.65;;;8.05;;
23300;SDS011;11819;51.394;12.340;2023-02-28T13:47:33;15.38;;;9.77;;
23300;SDS011;11819;51.394;12.340;2023-02-28T13:52:54;12.73;;;8.77;;
23300;SDS011;11819;51.394;12.340;2023-02-28T13:55:30;14.75;;;8.80;;
23300;SDS011;11819;51.394;12.340;2023-02-28T14:06:58;13.30;;;8.85;;
23300;SDS011;11819;51.394;12.340;2023-02-28T14:11:55;13.02;;;9.65;;
23300;SDS011;11819;51.394;12.340;2023-02-28T14:14:55;13.13;;;9.30;;
23300;SDS011;11819;51.394;12.340;2023-02-28T14:17:14;14.13;;;9.93;;
23300;SDS011;11819;51.394;12.340;2023-02-28T14:19:43;12.23;;;9.25;;
23300;SDS011;11819;51.394;12.340;2023-02-28T14:22:21;13.80;;;9.77;;
23300;SDS011;11819;51.394;12.340;2023-02-28T14:25:30;12.60;;;9.43;;
23300;SDS011;11819;51.394;12.340;2023-02-28T14:28:33;13.90;;;9.30;;
23300;SDS011;11819;51.394;12.340;2023-02-28T14:31:21;12.57;;;9.73;;
23300;SDS011;11819;51.394;12.340;2023-02-28T14:34:04;12.68;;;9.88;;
23300;SDS011;11819;51.394;12.340;2023-02-28T14:37:13;12.45;;;9.73;;
23300;SDS011;11819;51.394;12.340;2023-02-28T14:39:45;13.02;;;9.38;;
23300;SDS011;11819;51.394;12.340;2023-02-28T14:42:27;12.23;;;9.68;;
23300;SDS011;11819;51.394;12.340;2023-02-28T14:44:56;13.15;;;9.90;;
23300;SDS011;11819;51.394;12.340;2023-02-28T14:47:23;15.27;;;10.20;;
23300;SDS011;11819;51.394;12.340;2023-02-28T14:49:55;14.02;;;10.98;;
23300;SDS011;11819;51.394;12.340;2023-02-28T14:52:27;14.82;;;10.88;;
23300;SDS011;11819;51.394;12.340;2023-02-28T14:55:01;14.45;;;10.63;;
23300;SDS011;11819;51.394;12.340;2023-02-28T14:57:34;15.32;;;10.93;;
23300;SDS011;11819;51.394;12.340;2023-02-28T15:00:07;15.30;;;10.30;;
23300;SDS011;11819;51.394;12.340;2023-02-28T15:02:40;12.98;;;9.68;;
23300;SDS011;11819;51.394;12.340;2023-02-28T15:07:43;16.60;;;10.85;;
23300;SDS011;11819;51.394;12.340;2023-02-28T15:12:53;15.32;;;9.57;;
23300;SDS011;11819;51.394;12.340;2023-02-28T15:15:41;15.70;;;10.05;;
23300;SDS011;11819;51.394;12.340;2023-02-28T15:18:25;14.95;;;10.00;;
23300;SDS011;11819;51.394;12.340;2023-02-28T15:21:08;15.30;;;10.03;;
23300;SDS011;11819;51.394;12.340;2023-02-28T15:23:42;14.18;;;9.95;;
23300;SDS011;11819;51.394;12.340;2023-02-28T15:26:13;16.73;;;10.97;;
23300;SDS011;11819;51.394;12.340;2023-02-28T15:28:50;15.30;;;10.60;;
23300;SDS011;11819;51.394;12.340;2023-02-28T15:34:05;14.33;;;10.27;;
23300;SDS011;11819;51.394;12.340;2023-02-28T15:36:33;14.00;;;9.83;;
23300;SDS011;11819;51.394;12.340;2023-02-28T15:39:02;16.40;;;10.90;;
23300;SDS011;11819;51.394;12.340;2023-02-28T15:41:42;14.43;;;10.77;;
23300;SDS011;11819;51.394;12.340;2023-02-28T15:49:28;15.23;;;9.90;;
23300;SDS011;11819;51.394;12.340;2023-02-28T15:51:59;14.93;;;10.07;;
23300;SDS011;11819;51.394;12.340;2023-02-28T15:54:27;14.57;;;10.17;;
23300;SDS011;11819;51.394;12.340;2023-02-28T15:56:56;16.37;;;9.67;;
23300;SDS011;11819;51.394;12.340;2023-02-28T15:59:28;14.50;;;10.23;;
23300;SDS011;11819;51.394;12.340;2023-02-28T16:02:17;15.63;;;10.60;;
23300;SDS011;11819;51.394;12.340;2023-02-28T16:04:57;14.13;;;10.03;;
23300;SDS011;11819;51.394;12.340;2023-02-28T16:07:41;15.33;;;10.57;;
23300;SDS011;11819;51.394;12.340;2023-02-28T16:10:10;17.43;;;10.03;;
23300;SDS011;11819;51.394;12.340;2023-02-28T16:12:37;16.20;;;9.80;;
23300;SDS011;11819;51.394;12.340;2023-02-28T16:15:46;14.60;;;10.03;;
23300;SDS011;11819;51.394;12.340;2023-02-28T16:17:56;17.97;;;10.40;;
23300;SDS011;11819;51.394;12.340;2023-02-28T16:20:27;16.23;;;9.87;;
23300;SDS011;11819;51.394;12.340;2023-02-28T16:22:54;17.10;;;10.03;;
23300;SDS011;11819;51.394;12.340;2023-02-28T16:25:21;16.33;;;9.67;;
23300;SDS011;11819;51.394;12.340;2023-02-28T16:27:50;13.87;;;9.97;;
23300;SDS011;11819;51.394;12.340;2023-02-28T16:30:20;15.90;;;10.10;;
23300;SDS011;11819;51.394;12.340;2023-02-28T16:32:48;16.13;;;10.20;;
23300;SDS011;11819;51.394;12.340;2023-02-28T16:35:15;17.30;;;9.93;;
23300;SDS011;11819;51.394;12.340;2023-02-28T16:37:43;16.00;;;10.37;;
23300;SDS011;11819;51.394;12.340;2023-02-28T16:40:16;17.80;;;10.87;;
23300;SDS011;11819;51.394;12.340;2023-02-28T16:42:53;16.10;;;10.60;;
23300;SDS011;11819;51.394;12.340;2023-02-28T16:45:25;14.87;;;10.07;;
23300;SDS011;11819;51.394;12.340;2023-02-28T16:47:52;15.20;;;10.77;;
23300;SDS011;11819;51.394;12.340;2023-02-28T16:50:23;17.97;;;10.80;;
23300;SDS011;11819;51.394;12.340;2023-02-28T16:52:54;15.33;;;10.43;;
23300;SDS011;11819;51.394;12.340;2023-02-28T16:55:21;17.93;;;11.23;;